Navy Homeport, Mississippi
Current Conditions -  °F | °C
As of 3:53 PM on Monday 24 Nov 2014 (Local Time) from KPQL Reporting Station
Clear Clear  
Wind Chill: 73°   Ceiling: Unl
Heat Index: 73°   Visibility: 10mi
Dew Point: 51°   Wind: 5mph
Humidity: 46%   Direction: 320°NW
Pressure: 29.86"   Gusts: NA
Location:  30.3627°N, 88.5463°W
Report Text: KPQL 242153Z 32004KT 10SM CLR 23/11 A2986 RMK AO2 SLP112 T02280106
Loading
Personal Weather Stations






























Interactive Weather Map New forecast layout! Learn more

10-Day Weather Forecast

Advertisements
Track Severe Weather on mobile